createdAt,value
2022-11-29T00:01:26.061Z,93.30
2022-11-29T00:03:53.433Z,92.52
2022-11-29T00:06:22.267Z,93.32
2022-11-29T00:08:49.469Z,93.11
2022-11-29T00:11:40.629Z,93.04
2022-11-29T00:14:09.173Z,92.74
2022-11-29T00:16:36.089Z,92.91
2022-11-29T00:19:02.879Z,92.64
2022-11-29T00:21:29.500Z,92.69
2022-11-29T00:23:55.991Z,92.36
2022-11-29T00:26:22.512Z,91.68
2022-11-29T00:28:48.942Z,92.50
2022-11-29T00:31:15.368Z,92.88
2022-11-29T00:33:41.824Z,92.17
2022-11-29T00:36:08.469Z,92.98
2022-11-29T00:38:34.941Z,92.58
2022-11-29T00:41:01.376Z,92.30
2022-11-29T00:43:27.830Z,92.38
2022-11-29T00:45:54.369Z,92.46
2022-11-29T00:48:20.892Z,91.08
2022-11-29T00:50:47.387Z,91.50
2022-11-29T00:53:13.921Z,91.41
2022-11-29T00:55:40.644Z,92.08
2022-11-29T00:58:07.440Z,91.75
2022-11-29T01:00:33.881Z,92.01
2022-11-29T01:03:00.296Z,92.27
2022-11-29T01:05:26.696Z,93.02
2022-11-29T01:07:53.369Z,92.77
2022-11-29T01:10:20.109Z,93.21
2022-11-29T01:12:46.570Z,93.16
2022-11-29T01:15:13.153Z,92.65
2022-11-29T01:17:40.004Z,93.54
2022-11-29T01:20:08.917Z,92.78
2022-11-29T01:22:35.958Z,92.80
2022-11-29T01:25:02.681Z,93.11
2022-11-29T01:27:29.494Z,92.99
2022-11-29T01:29:55.932Z,93.17
2022-11-29T01:32:22.488Z,92.77
2022-11-29T01:34:48.936Z,93.01
2022-11-29T01:37:15.532Z,92.94
2022-11-29T01:39:42.551Z,92.78
2022-11-29T01:42:13.628Z,91.82
2022-11-29T01:44:39.977Z,92.90
2022-11-29T01:47:06.520Z,92.86
2022-11-29T01:49:37.792Z,92.62
2022-11-29T01:52:26.493Z,92.49
2022-11-29T01:54:58.262Z,92.52
2022-11-29T01:57:26.101Z,92.31
2022-11-29T01:59:58.038Z,92.66
2022-11-29T02:02:35.373Z,92.59
2022-11-29T02:05:03.505Z,92.69
2022-11-29T02:07:29.923Z,92.12
2022-11-29T02:09:56.493Z,92.43
2022-11-29T02:12:41.575Z,91.86
2022-11-29T02:15:27.649Z,91.59
2022-11-29T02:18:09.237Z,91.86
2022-11-29T02:21:09.835Z,92.03
2022-11-29T02:23:54.660Z,91.71
2022-11-29T02:27:11.731Z,91.82
2022-11-29T02:29:47.360Z,91.57
2022-11-29T02:32:38.926Z,92.72
2022-11-29T02:35:18.040Z,92.17
2022-11-29T02:37:53.660Z,92.71
2022-11-29T02:40:29.096Z,93.08
2022-11-29T02:43:20.752Z,92.60
2022-11-29T02:45:51.351Z,92.03
2022-11-29T02:48:26.041Z,92.50
2022-11-29T02:51:04.540Z,92.64
2022-11-29T02:53:42.064Z,92.21
2022-11-29T02:56:26.085Z,92.07
2022-11-29T02:59:07.390Z,91.59
2022-11-29T03:01:47.128Z,91.59
2022-11-29T03:04:39.337Z,91.49
2022-11-29T03:07:48.728Z,91.81
2022-11-29T03:10:21.074Z,91.39
2022-11-29T03:12:50.202Z,91.32
2022-11-29T03:15:30.393Z,91.40
2022-11-29T03:18:14.665Z,91.34
2022-11-29T03:21:06.160Z,91.32
2022-11-29T03:23:39.313Z,91.29
2022-11-29T03:26:15.268Z,91.33
2022-11-29T03:28:54.979Z,91.24
2022-11-29T03:31:29.985Z,90.66
2022-11-29T03:34:32.315Z,91.03
2022-11-29T03:37:19.963Z,90.64
2022-11-29T03:40:02.126Z,91.31
2022-11-29T03:42:34.406Z,91.29
2022-11-29T03:45:24.901Z,90.55
2022-11-29T03:48:14.559Z,91.06
2022-11-29T03:50:52.395Z,90.89
2022-11-29T03:53:45.152Z,91.12
2022-11-29T03:56:30.827Z,90.76
2022-11-29T03:59:13.222Z,91.34
2022-11-29T04:02:06.961Z,91.26
2022-11-29T04:05:10.646Z,91.45
2022-11-29T04:08:01.745Z,92.16
2022-11-29T04:10:40.264Z,92.24
2022-11-29T04:13:30.188Z,91.49
2022-11-29T04:16:08.685Z,91.24
2022-11-29T04:18:56.624Z,91.88
2022-11-29T04:21:51.145Z,92.10
2022-11-29T04:24:55.389Z,91.24
2022-11-29T04:27:49.489Z,91.80
2022-11-29T04:30:23.830Z,91.01
2022-11-29T04:32:59.766Z,91.92
2022-11-29T04:35:56.084Z,91.70
2022-11-29T04:38:41.339Z,91.38
2022-11-29T04:41:26.469Z,91.02
2022-11-29T04:44:16.408Z,90.49
2022-11-29T04:46:51.781Z,90.25
2022-11-29T04:49:21.258Z,90.58
2022-11-29T04:52:14.719Z,89.65
2022-11-29T04:54:56.654Z,89.94
2022-11-29T04:57:49.204Z,89.92
2022-11-29T05:00:20.306Z,90.09
2022-11-29T05:02:58.911Z,89.89
2022-11-29T05:05:41.866Z,89.39
2022-11-29T05:08:16.577Z,89.06
2022-11-29T05:10:59.745Z,89.74
2022-11-29T05:13:42.864Z,89.27
2022-11-29T05:16:34.228Z,89.54
2022-11-29T05:19:16.293Z,89.63
2022-11-29T05:22:18.380Z,90.63
2022-11-29T05:24:50.562Z,90.60
2022-11-29T05:27:47.043Z,90.73
2022-11-29T05:30:20.394Z,91.31
2022-11-29T05:32:57.928Z,91.96
2022-11-29T05:35:51.941Z,92.98
2022-11-29T05:38:49.994Z,92.68
2022-11-29T05:41:44.451Z,92.96
2022-11-29T05:44:23.998Z,92.58
2022-11-29T05:47:00.657Z,91.84
2022-11-29T05:49:49.823Z,92.26
2022-11-29T05:52:19.384Z,92.04
2022-11-29T05:54:57.802Z,91.32
2022-11-29T05:57:58.641Z,90.58
2022-11-29T06:00:32.043Z,90.83
2022-11-29T06:03:14.024Z,90.67
2022-11-29T06:05:53.061Z,91.56
2022-11-29T06:08:44.130Z,91.47
2022-11-29T06:11:36.269Z,91.46
2022-11-29T06:14:13.576Z,91.56
2022-11-29T06:16:50.686Z,91.64
2022-11-29T06:19:32.510Z,91.70
2022-11-29T06:22:20.880Z,90.98
2022-11-29T06:25:23.103Z,91.15
2022-11-29T06:27:59.589Z,91.11
2022-11-29T06:30:46.140Z,91.33
2022-11-29T06:33:22.491Z,91.60
2022-11-29T06:36:13.654Z,91.25
2022-11-29T06:38:41.104Z,91.99
2022-11-29T06:41:14.570Z,91.80
2022-11-29T06:43:41.548Z,91.01
2022-11-29T06:46:36.359Z,91.17
2022-11-29T06:49:09.838Z,91.48
2022-11-29T06:51:48.104Z,91.89
2022-11-29T06:54:36.183Z,91.12
2022-11-29T06:57:18.851Z,91.24
2022-11-29T07:00:25.244Z,90.90
2022-11-29T07:03:19.797Z,90.93
2022-11-29T07:05:46.798Z,90.84
2022-11-29T07:08:15.531Z,91.75
2022-11-29T07:10:43.209Z,90.57
2022-11-29T07:13:15.890Z,90.53
2022-11-29T07:16:06.524Z,90.63
2022-11-29T07:18:55.584Z,91.02
2022-11-29T07:22:04.043Z,90.69
2022-11-29T07:24:49.342Z,90.66
2022-11-29T07:27:22.497Z,90.89
2022-11-29T07:30:14.029Z,90.85
2022-11-29T07:33:05.169Z,90.81
2022-11-29T07:36:01.561Z,90.76
2022-11-29T07:38:40.324Z,90.96
2022-11-29T07:41:27.372Z,91.43
2022-11-29T07:44:09.869Z,91.21
2022-11-29T07:46:36.365Z,91.39
2022-11-29T07:49:02.893Z,91.17
2022-11-29T07:51:29.398Z,91.40
2022-11-29T07:53:55.881Z,91.54
2022-11-29T07:56:22.370Z,91.88
2022-11-29T07:58:48.989Z,91.28
2022-11-29T08:01:15.562Z,91.16
2022-11-29T08:03:42.670Z,90.94
2022-11-29T08:06:09.298Z,91.11
2022-11-29T08:08:40.606Z,91.09
2022-11-29T08:11:11.387Z,91.06
2022-11-29T08:13:37.817Z,90.93
2022-11-29T08:16:04.545Z,90.77
2022-11-29T08:18:30.983Z,90.96
2022-11-29T08:20:57.465Z,91.34
2022-11-29T08:23:23.902Z,91.45
2022-11-29T08:25:50.355Z,90.67
2022-11-29T08:28:17.109Z,90.86
2022-11-29T08:30:43.580Z,91.51
2022-11-29T08:33:10.051Z,90.48
2022-11-29T08:35:36.510Z,91.05
2022-11-29T08:38:04.831Z,90.74
2022-11-29T08:40:31.457Z,90.59
2022-11-29T08:42:58.408Z,90.91
2022-11-29T08:45:25.000Z,91.52
2022-11-29T08:47:51.483Z,91.62
2022-11-29T08:50:18.309Z,91.80
2022-11-29T08:53:05.724Z,91.40
2022-11-29T08:55:40.051Z,91.15
2022-11-29T08:58:08.819Z,91.34
2022-11-29T09:00:35.647Z,90.95
2022-11-29T09:03:22.720Z,91.00
2022-11-29T09:05:49.510Z,91.28
2022-11-29T09:08:16.046Z,91.28
2022-11-29T09:10:43.023Z,91.75
2022-11-29T09:13:10.454Z,91.27
2022-11-29T09:15:38.285Z,90.94
2022-11-29T09:18:05.771Z,90.80
2022-11-29T09:20:33.198Z,91.09
2022-11-29T09:23:01.122Z,90.88
2022-11-29T09:25:27.825Z,90.81
2022-11-29T09:27:54.201Z,91.30
2022-11-29T09:30:23.812Z,91.34
2022-11-29T09:32:50.637Z,91.33
2022-11-29T09:35:17.436Z,90.80
2022-11-29T09:37:44.185Z,90.45
2022-11-29T09:40:22.761Z,90.49
2022-11-29T09:42:59.544Z,90.63
2022-11-29T09:45:35.830Z,90.19
2022-11-29T09:48:27.676Z,90.50
2022-11-29T09:51:18.493Z,90.69
2022-11-29T09:54:19.412Z,90.74
2022-11-29T09:56:49.966Z,91.22
2022-11-29T09:59:28.969Z,90.60
2022-11-29T10:02:05.812Z,90.27
2022-11-29T10:04:40.504Z,90.04
2022-11-29T10:07:12.563Z,90.19
2022-11-29T10:09:45.951Z,90.50
2022-11-29T10:12:17.137Z,90.23
2022-11-29T10:14:57.658Z,89.63
2022-11-29T10:17:34.307Z,88.83
2022-11-29T10:20:09.920Z,88.35
2022-11-29T10:22:49.541Z,88.43
2022-11-29T10:25:39.714Z,88.81
2022-11-29T10:28:13.833Z,89.91
2022-11-29T10:30:41.632Z,90.31
2022-11-29T10:33:19.021Z,89.77
2022-11-29T10:35:47.047Z,89.27
2022-11-29T10:38:30.253Z,89.59
2022-11-29T10:41:07.885Z,89.75
2022-11-29T10:43:34.915Z,89.87
2022-11-29T10:46:02.458Z,89.98
2022-11-29T10:48:32.921Z,89.82
2022-11-29T10:51:01.373Z,89.62
2022-11-29T10:53:32.792Z,88.39
2022-11-29T10:56:03.972Z,88.07
2022-11-29T10:58:32.774Z,88.95
2022-11-29T11:01:07.375Z,89.22
2022-11-29T11:04:05.141Z,88.74
2022-11-29T11:06:56.185Z,88.36
2022-11-29T11:09:38.253Z,89.51
2022-11-29T11:12:19.938Z,89.85
2022-11-29T11:14:47.239Z,89.86
2022-11-29T11:17:36.481Z,88.18
2022-11-29T11:20:08.636Z,87.98
2022-11-29T11:22:39.694Z,87.83
2022-11-29T11:25:30.180Z,88.94
2022-11-29T11:28:10.564Z,88.67
2022-11-29T11:30:37.193Z,88.23
2022-11-29T11:33:26.870Z,87.73
2022-11-29T11:36:19.554Z,88.33
2022-11-29T11:39:10.120Z,88.33
2022-11-29T11:42:00.418Z,88.38
2022-11-29T11:44:48.278Z,88.71
2022-11-29T11:47:30.837Z,88.85
2022-11-29T11:50:00.276Z,88.41
2022-11-29T11:52:30.746Z,88.33
2022-11-29T11:55:01.207Z,88.55
2022-11-29T11:57:28.529Z,88.34
2022-11-29T12:00:01.989Z,88.01
2022-11-29T12:02:40.630Z,88.25
2022-11-29T12:05:17.114Z,88.68
2022-11-29T12:10:40.316Z,89.34
2022-11-29T12:13:19.753Z,89.99
2022-11-29T12:15:49.696Z,89.79
2022-11-29T12:18:34.665Z,89.84
2022-11-29T12:21:14.149Z,89.04
2022-11-29T12:23:49.076Z,89.73
2022-11-29T12:26:55.519Z,89.50
2022-11-29T12:29:19.249Z,89.38
2022-11-29T12:32:30.478Z,89.25
2022-11-29T12:35:23.177Z,89.33
2022-11-29T12:37:56.499Z,89.02
2022-11-29T12:40:46.766Z,88.65
2022-11-29T12:43:39.129Z,88.88
2022-11-29T12:46:13.775Z,88.77
2022-11-29T12:48:46.971Z,88.80
2022-11-29T12:51:34.787Z,88.70
2022-11-29T12:54:35.431Z,88.69
2022-11-29T12:57:34.294Z,88.34
2022-11-29T13:00:11.967Z,88.77
2022-11-29T13:02:54.361Z,89.48
2022-11-29T13:05:20.902Z,89.43
2022-11-29T13:08:05.851Z,89.28
2022-11-29T13:10:36.640Z,89.90
2022-11-29T13:13:18.185Z,89.20
2022-11-29T13:15:56.728Z,89.53
2022-11-29T13:18:43.914Z,89.56
2022-11-29T13:21:22.882Z,89.39
2022-11-29T13:24:08.520Z,89.59
2022-11-29T13:26:37.715Z,89.81
2022-11-29T13:29:06.201Z,89.91
2022-11-29T13:31:33.454Z,90.06
2022-11-29T13:34:11.366Z,89.67
2022-11-29T13:37:02.115Z,89.61
2022-11-29T13:40:05.965Z,90.08
2022-11-29T13:42:45.279Z,89.76
2022-11-29T13:45:34.209Z,90.02
2022-11-29T13:48:02.176Z,90.08
2022-11-29T13:50:44.915Z,89.84
2022-11-29T13:53:21.447Z,90.16
2022-11-29T13:56:02.803Z,89.99
2022-11-29T13:58:29.223Z,89.80
2022-11-29T14:01:06.717Z,90.13
2022-11-29T14:03:39.520Z,90.31
2022-11-29T14:06:20.966Z,89.94
2022-11-29T14:11:42.810Z,90.12
2022-11-29T14:14:24.946Z,90.59
2022-11-29T14:17:03.443Z,91.05
2022-11-29T14:19:35.488Z,90.85
2022-11-29T14:22:01.870Z,90.68
2022-11-29T14:24:35.560Z,91.10
2022-11-29T14:27:14.180Z,90.34
2022-11-29T14:29:49.966Z,91.02
2022-11-29T14:32:28.592Z,90.74
2022-11-29T14:35:10.610Z,90.81
2022-11-29T14:37:58.863Z,91.26
2022-11-29T14:40:34.865Z,91.79
2022-11-29T14:43:05.356Z,91.24
2022-11-29T14:45:34.421Z,90.99
2022-11-29T14:48:01.701Z,90.70
2022-11-29T14:50:37.344Z,90.80
2022-11-29T14:53:07.082Z,90.58
2022-11-29T14:55:36.762Z,90.97
2022-11-29T14:58:03.985Z,91.71
2022-11-29T15:00:55.116Z,91.76
2022-11-29T15:03:36.775Z,91.04
2022-11-29T15:06:17.781Z,91.18
2022-11-29T15:08:55.629Z,92.74
2022-11-29T15:11:57.244Z,92.73
2022-11-29T15:14:46.281Z,92.70
2022-11-29T15:17:30.798Z,92.75
2022-11-29T15:20:21.853Z,92.16
2022-11-29T15:22:57.914Z,92.63
2022-11-29T15:25:28.353Z,92.77
2022-11-29T15:27:56.086Z,92.71
2022-11-29T15:30:28.797Z,91.61
2022-11-29T15:32:56.741Z,92.21
2022-11-29T15:35:23.542Z,91.87
2022-11-29T15:37:50.312Z,92.13
2022-11-29T15:40:21.832Z,92.54
2022-11-29T15:43:07.102Z,92.90
2022-11-29T15:45:36.168Z,92.71
2022-11-29T15:48:13.695Z,92.69
2022-11-29T15:50:49.832Z,92.81
2022-11-29T15:53:21.311Z,92.41
2022-11-29T15:55:50.557Z,92.27
2022-11-29T15:58:17.926Z,92.40
2022-11-29T16:00:49.652Z,92.60
2022-11-29T16:03:25.073Z,93.31
2022-11-29T16:06:20.703Z,93.09
2022-11-29T16:08:49.186Z,93.25
2022-11-29T16:11:20.210Z,93.33
2022-11-29T16:14:11.915Z,93.61
2022-11-29T16:16:40.232Z,93.20
2022-11-29T16:19:10.961Z,92.43
2022-11-29T16:21:37.577Z,92.52
2022-11-29T16:24:20.599Z,92.37
2022-11-29T16:26:49.591Z,94.00
2022-11-29T16:29:37.468Z,94.19
2022-11-29T16:32:24.681Z,94.08
2022-11-29T16:34:51.401Z,94.37
2022-11-29T16:37:22.115Z,94.27
2022-11-29T16:39:51.411Z,95.14
2022-11-29T16:42:26.205Z,94.40
2022-11-29T16:44:55.853Z,94.25
2022-11-29T16:47:24.840Z,93.13
2022-11-29T16:50:13.678Z,93.38
2022-11-29T16:52:40.217Z,94.06
2022-11-29T16:55:06.988Z,94.18
2022-11-29T16:57:33.607Z,94.45
2022-11-29T17:00:00.066Z,93.72
2022-11-29T17:02:29.272Z,94.44
2022-11-29T17:04:56.935Z,94.43
2022-11-29T17:07:30.229Z,93.32
2022-11-29T17:09:57.065Z,93.47
2022-11-29T17:12:23.573Z,93.19
2022-11-29T17:14:50.026Z,92.81
2022-11-29T17:17:18.917Z,92.69
2022-11-29T17:19:45.570Z,92.88
2022-11-29T17:22:12.627Z,92.53
2022-11-29T17:24:43.545Z,92.45
2022-11-29T17:27:14.090Z,92.95
2022-11-29T17:29:40.611Z,93.01
2022-11-29T17:32:07.132Z,92.97
2022-11-29T17:34:33.721Z,92.31
2022-11-29T17:37:00.122Z,91.73
2022-11-29T17:39:26.566Z,92.36
2022-11-29T17:41:53.053Z,91.64
2022-11-29T17:44:19.511Z,91.82
2022-11-29T17:46:46.215Z,91.66
2022-11-29T17:49:12.660Z,92.41
2022-11-29T17:51:55.925Z,92.67
2022-11-29T17:54:22.921Z,91.92
2022-11-29T17:56:49.705Z,92.42
2022-11-29T17:59:16.141Z,92.20
2022-11-29T18:01:42.687Z,91.71
2022-11-29T18:04:09.191Z,91.48
2022-11-29T18:06:40.304Z,90.79
2022-11-29T18:09:08.821Z,90.14
2022-11-29T18:11:45.303Z,89.49
2022-11-29T18:14:16.018Z,88.08
2022-11-29T18:16:42.609Z,87.63
2022-11-29T18:19:12.554Z,87.93
2022-11-29T18:21:39.059Z,87.64
2022-11-29T18:24:06.877Z,87.35
2022-11-29T18:26:34.936Z,86.63
2022-11-29T18:29:01.481Z,85.84
2022-11-29T18:31:30.382Z,86.11
2022-11-29T18:33:59.705Z,86.26
2022-11-29T18:36:29.016Z,85.23
2022-11-29T18:38:58.156Z,84.32
2022-11-29T18:41:25.935Z,89.51
2022-11-29T18:44:01.528Z,93.94
2022-11-29T18:46:36.709Z,87.86
2022-11-29T18:49:06.374Z,81.36
2022-11-29T18:51:34.106Z,80.61
2022-11-29T18:54:01.494Z,80.41
2022-11-29T18:56:30.437Z,80.21
2022-11-29T18:58:59.654Z,80.86
2022-11-29T19:01:29.964Z,81.43
2022-11-29T19:03:59.568Z,82.06
2022-11-29T19:06:37.363Z,82.52
2022-11-29T19:09:06.883Z,83.54
2022-11-29T19:11:34.445Z,83.73
2022-11-29T19:14:06.366Z,83.54
2022-11-29T19:16:34.449Z,83.82
2022-11-29T19:19:01.774Z,83.98
2022-11-29T19:21:31.832Z,83.93
2022-11-29T19:24:05.524Z,83.74
2022-11-29T19:26:33.492Z,84.45
2022-11-29T19:29:01.416Z,84.28
2022-11-29T19:31:28.476Z,84.21
2022-11-29T19:33:55.432Z,84.39
2022-11-29T19:36:24.659Z,84.24
2022-11-29T19:38:53.676Z,84.98
2022-11-29T19:41:26.680Z,85.05
2022-11-29T19:43:54.049Z,84.80
2022-11-29T19:46:23.919Z,84.53
2022-11-29T19:48:52.920Z,84.18
2022-11-29T19:51:20.307Z,84.96
2022-11-29T19:53:47.553Z,85.50
2022-11-29T19:56:16.391Z,84.36
2022-11-29T19:58:43.932Z,84.82
2022-11-29T20:01:16.265Z,84.64
2022-11-29T20:03:44.937Z,83.98
2022-11-29T20:06:13.728Z,84.41
2022-11-29T20:08:41.127Z,84.26
2022-11-29T20:11:09.914Z,84.74
2022-11-29T20:13:37.535Z,84.86
2022-11-29T20:16:05.964Z,84.71
2022-11-29T20:18:33.566Z,84.98
2022-11-29T20:21:05.424Z,85.13
2022-11-29T20:23:32.184Z,84.59
2022-11-29T20:25:58.872Z,85.13
2022-11-29T20:28:25.623Z,85.11
2022-11-29T20:31:05.356Z,84.76
2022-11-29T20:33:32.244Z,85.55
2022-11-29T20:36:35.909Z,85.74
2022-11-29T20:39:20.522Z,85.20
2022-11-29T20:41:52.902Z,85.53
2022-11-29T20:44:45.207Z,85.78
2022-11-29T20:47:18.112Z,86.64
2022-11-29T20:49:45.198Z,87.24
2022-11-29T20:52:37.061Z,87.87
2022-11-29T20:55:04.100Z,87.83
2022-11-29T20:57:30.510Z,87.99
2022-11-29T20:59:57.015Z,88.23
2022-11-29T21:02:24.648Z,87.50
2022-11-29T21:04:52.750Z,87.02
2022-11-29T21:07:19.195Z,86.94
2022-11-29T21:09:45.848Z,86.81
2022-11-29T21:12:12.820Z,86.98
2022-11-29T21:14:39.583Z,86.43
2022-11-29T21:17:06.557Z,86.35
2022-11-29T21:19:33.392Z,87.41
2022-11-29T21:22:19.757Z,87.34
2022-11-29T21:25:15.224Z,87.09
2022-11-29T21:27:41.936Z,87.46
2022-11-29T21:30:22.462Z,88.06
2022-11-29T21:32:49.524Z,88.87
2022-11-29T21:35:17.827Z,89.03
2022-11-29T21:37:44.817Z,88.93
2022-11-29T21:40:12.412Z,88.28
2022-11-29T21:42:39.030Z,88.62
2022-11-29T21:45:09.318Z,88.70
2022-11-29T21:47:41.275Z,88.66
2022-11-29T21:50:08.165Z,87.77
2022-11-29T21:52:34.730Z,87.59
2022-11-29T21:55:01.206Z,87.84
2022-11-29T21:57:27.630Z,87.52
2022-11-29T21:59:54.282Z,87.38
2022-11-29T22:02:21.110Z,87.28
2022-11-29T22:04:47.818Z,86.82
2022-11-29T22:07:14.501Z,87.25
2022-11-29T22:09:41.011Z,87.57
2022-11-29T22:12:31.823Z,87.60
2022-11-29T22:14:54.061Z,88.72
2022-11-29T22:17:20.516Z,88.38
2022-11-29T22:19:46.981Z,88.65
2022-11-29T22:22:14.352Z,88.49
2022-11-29T22:24:41.018Z,87.50
2022-11-29T22:27:07.469Z,88.47
2022-11-29T22:29:34.306Z,88.29
2022-11-29T22:32:01.196Z,88.00
2022-11-29T22:34:28.526Z,87.38
2022-11-29T22:36:55.667Z,87.71
2022-11-29T22:39:23.863Z,88.19
2022-11-29T22:41:54.328Z,87.50
2022-11-29T22:44:22.286Z,87.67
2022-11-29T22:46:48.783Z,87.32
2022-11-29T22:49:15.568Z,87.07
2022-11-29T22:51:42.350Z,86.53
2022-11-29T22:54:11.260Z,86.56
2022-11-29T22:56:40.466Z,85.98
2022-11-29T22:59:07.465Z,86.32
2022-11-29T23:01:36.246Z,86.92
2022-11-29T23:04:04.532Z,86.62
2022-11-29T23:06:40.096Z,86.67
2022-11-29T23:09:11.818Z,88.11
2022-11-29T23:11:38.730Z,87.81
2022-11-29T23:14:05.192Z,88.26
2022-11-29T23:16:32.747Z,87.26
2022-11-29T23:18:59.942Z,88.03
2022-11-29T23:21:32.049Z,87.02
2022-11-29T23:24:00.835Z,87.94
2022-11-29T23:26:31.189Z,88.97
2022-11-29T23:28:58.320Z,89.12
2022-11-29T23:31:25.071Z,89.59
2022-11-29T23:33:52.055Z,90.49
2022-11-29T23:36:18.973Z,89.85
2022-11-29T23:38:47.466Z,89.04
2022-11-29T23:41:14.414Z,89.27
2022-11-29T23:43:41.430Z,89.58
2022-11-29T23:46:16.694Z,89.23
2022-11-29T23:48:44.840Z,89.48
2022-11-29T23:51:11.693Z,88.48
2022-11-29T23:53:38.932Z,88.76
2022-11-29T23:56:08.541Z,87.70
2022-11-29T23:58:35.214Z,88.02
